Forside
METAR-TAF:

METAR-TAF

Lufthavne :

Najran, Saudi-Arabien

Breddekreds: 17-37N, længdekreds: 044-25E, højde: 1212 m

Aktuelle vejr

Denne rapport blev lavet for 1 time og 17 minutter siden, kl. 09:00 UTC
Vind 8 kt fra øst
Temperatur 36°C
Fugtighed 13%
Tryk 1019 hPa
Sigt 10 km eller mere
ingen skyer under 1500m og ingen cumulonimbus

METAR: OENG 230900Z 10008KT CAVOK 36/03 Q1019 NOSIG

Tid: 13:17 (10:17 UTC)

Vejrudsigter

Denne rapport blev lavet for 11 timer og 17 minutter siden, kl. 23:00 UTC
Foreløbig gælder fra 23 på 00 UTC til 24 på 06 UTC
Vind 6 kt fra vest
Sigt 10 km eller mere
Nogle få skyer i en højde af 3000 ft
ændring
fra 23 på 06 UTC til 23 på 08 UTC
Vind 5 kt fra øst med vindstød på up til 15 kt
Midlertidig
fra 23 på 10 UTC til 23 på 18 UTC
Sigt: 5000 m
Spredte skyer i en højde af 3000 ft
Udbredt støv, blæsende støv

TAF: OENG 222300Z 2300/2406 26006KT 9999 FEW030 BECMG 2306/2308 09005G15KT TEMPO 2310/2318 5000 DU BLDU SCT030

Vejrobservationer og prognoser fra mere end 4000 lufthavne (METAR og TAF).

De gule og røde prikker repræsenterer de meteorologiske stationer.

Flyt musen over at se navnet på stationen.

Så klik over at se vejr observationer og prognoser.

At skifte det kort: Klik på de grønne knapper med et sort kors for at zoome ind; på den grønne knap med en bindestreg for at zoome ud; eller på de grønne pile for tilstødende kort.


METAR-TAF: